Time;durP1;ratioP1;P1;durP2;ratioP2;P2;SDS_P1;SDS_P2;PMS_P1;PMS_P2;Temp;Humidity;BMP_temperature;BMP_pressure;BME280_temperature;BME280_humidity;BME280_pressure;Samples;Min_cycle;Max_cycle;Signal;HPM_P1;HPM_P2
2021/07/25 00:00:58;;;;;;;10.80;9.70;;;18.80;99.90;;;;;;5029162;28;20655;-92
2021/07/25 00:03:25;;;;;;;9.27;8.23;;;18.80;99.90;;;;;;5020170;28;20746;-92
2021/07/25 00:05:52;;;;;;;9.80;8.83;;;18.80;99.90;;;;;;5018561;28;20618;-92
2021/07/25 00:08:20;;;;;;;12.50;11.20;;;18.70;99.90;;;;;;5028132;28;20627;-92
2021/07/25 00:10:48;;;;;;;12.57;11.33;;;18.70;99.90;;;;;;5028192;28;20654;-92
2021/07/25 00:13:16;;;;;;;13.30;11.97;;;18.80;99.90;;;;;;5031710;28;20634;-92
2021/07/25 00:15:43;;;;;;;10.10;9.10;;;18.70;99.90;;;;;;5029666;28;21214;-92
2021/07/25 00:18:10;;;;;;;12.27;9.03;;;18.70;99.90;;;;;;5022114;28;20626;-92
2021/07/25 00:20:37;;;;;;;11.97;9.03;;;18.70;99.90;;;;;;5027393;28;21304;-92
2021/07/25 00:23:05;;;;;;;12.50;11.30;;;18.70;99.90;;;;;;5021866;28;20643;-91
2021/07/25 00:25:34;;;;;;;10.57;9.47;;;18.60;99.90;;;;;;5036993;28;20630;-92
2021/07/25 00:28:01;;;;;;;14.10;9.57;;;18.70;99.90;;;;;;5028465;28;20667;-92
2021/07/25 00:30:28;;;;;;;13.03;10.77;;;18.60;99.90;;;;;;5029372;28;20650;-92
2021/07/25 00:32:55;;;;;;;11.70;10.07;;;18.60;99.90;;;;;;5023419;28;20629;-91
2021/07/25 00:35:22;;;;;;;10.97;9.83;;;18.60;99.90;;;;;;5028598;28;21211;-92
2021/07/25 00:37:49;;;;;;;12.13;10.00;;;18.70;99.90;;;;;;5025305;28;20619;-92
2021/07/25 00:40:26;;;;;;;14.50;12.50;;;18.70;99.90;;;;;;5029983;28;20678;-92
2021/07/25 00:42:54;;;;;;;10.23;9.07;;;18.60;99.90;;;;;;5024736;28;20618;-91
2021/07/25 00:45:21;;;;;;;10.63;9.30;;;18.60;99.90;;;;;;5023021;28;20976;-92
2021/07/25 00:47:48;;;;;;;11.77;8.97;;;18.60;99.90;;;;;;5018138;28;20626;-92
2021/07/25 00:50:16;;;;;;;12.67;9.50;;;18.60;99.90;;;;;;5023999;28;20658;-92
2021/07/25 00:52:44;;;;;;;10.60;9.53;;;18.60;99.90;;;;;;5026658;28;20631;-92
2021/07/25 00:55:12;;;;;;;11.53;10.40;;;18.70;99.90;;;;;;5029553;28;20641;-92
2021/07/25 00:57:39;;;;;;;10.37;9.27;;;18.60;99.90;;;;;;5023936;28;20667;-92
2021/07/25 01:00:11;;;;;;;14.60;11.07;;;18.60;99.90;;;;;;5033153;28;20686;-92
2021/07/25 01:02:48;;;;;;;11.27;10.17;;;18.60;99.90;;;;;;5022404;28;21162;-92
2021/07/25 01:05:20;;;;;;;10.93;9.23;;;18.60;99.90;;;;;;5023209;28;20992;-92
2021/07/25 01:07:52;;;;;;;11.37;9.17;;;18.60;99.90;;;;;;5024679;28;20637;-91
2021/07/25 01:10:20;;;;;;;10.40;9.40;;;18.60;99.90;;;;;;5026341;28;20649;-92
2021/07/25 01:12:56;;;;;;;10.37;9.03;;;18.70;99.90;;;;;;5020882;28;20631;-92
2021/07/25 01:15:27;;;;;;;15.87;11.13;;;18.60;99.90;;;;;;5026069;28;20617;-92
2021/07/25 01:17:55;;;;;;;9.57;8.77;;;18.60;99.90;;;;;;5018169;28;20619;-92
2021/07/25 01:20:23;;;;;;;14.17;9.03;;;18.60;99.90;;;;;;5020718;28;21260;-91
2021/07/25 01:22:54;;;;;;;10.43;9.43;;;18.60;99.90;;;;;;5023259;28;20652;-92
2021/07/25 01:25:24;;;;;;;11.30;10.10;;;18.50;99.90;;;;;;5016944;28;20631;-91
2021/07/25 01:27:53;;;;;;;12.83;11.30;;;18.50;99.90;;;;;;5026982;28;20657;-92
2021/07/25 01:30:22;;;;;;;13.80;10.40;;;18.50;99.90;;;;;;5029920;28;20654;-92
2021/07/25 01:32:52;;;;;;;10.30;9.23;;;18.50;99.90;;;;;;5019854;28;21325;-92
2021/07/25 01:35:19;;;;;;;12.60;9.53;;;18.50;99.90;;;;;;5027953;28;20619;-92
2021/07/25 01:37:49;;;;;;;13.47;10.80;;;18.40;99.90;;;;;;5019110;28;20643;-93
2021/07/25 01:40:19;;;;;;;9.83;8.83;;;18.40;99.90;;;;;;5030587;28;20680;-92
2021/07/25 01:42:45;;;;;;;12.33;9.50;;;18.40;99.90;;;;;;5027188;28;20642;-92
2021/07/25 01:45:13;;;;;;;11.83;10.63;;;18.40;99.90;;;;;;5029276;28;20659;-93
2021/07/25 01:47:40;;;;;;;11.87;9.83;;;18.40;99.90;;;;;;5025465;28;20683;-92
2021/07/25 01:50:08;;;;;;;11.93;9.70;;;18.40;99.90;;;;;;5027334;28;20649;-92
2021/07/25 01:52:35;;;;;;;11.10;9.57;;;18.30;99.90;;;;;;5023733;28;20634;-92
2021/07/25 01:55:05;;;;;;;12.60;9.63;;;18.40;99.90;;;;;;5026987;28;20627;-91
2021/07/25 01:57:32;;;;;;;13.30;9.93;;;18.40;99.90;;;;;;5025030;28;21034;-92
2021/07/25 01:59:59;;;;;;;10.60;9.30;;;18.50;99.90;;;;;;5039275;28;20689;-92
2021/07/25 02:02:25;;;;;;;10.13;9.20;;;18.50;99.90;;;;;;5034928;28;20619;-92
2021/07/25 02:04:52;;;;;;;9.87;8.70;;;18.50;99.90;;;;;;5029259;28;20638;-91
2021/07/25 02:07:19;;;;;;;11.93;9.20;;;18.40;99.90;;;;;;5030683;28;20965;-92
2021/07/25 02:09:46;;;;;;;11.53;10.43;;;18.40;99.90;;;;;;5026310;28;20638;-92
2021/07/25 02:12:14;;;;;;;10.30;9.30;;;18.40;99.90;;;;;;5024650;28;20635;-91
2021/07/25 02:14:41;;;;;;;10.57;9.30;;;18.40;99.90;;;;;;5025671;28;20638;-91
2021/07/25 02:17:09;;;;;;;19.27;11.03;;;18.40;99.90;;;;;;5016595;28;20638;-92
2021/07/25 02:19:37;;;;;;;10.20;9.07;;;18.40;99.90;;;;;;5025112;28;21302;-93
2021/07/25 02:22:05;;;;;;;14.33;10.20;;;18.40;99.90;;;;;;5031716;28;20955;-92
2021/07/25 02:24:32;;;;;;;12.10;9.87;;;18.40;99.90;;;;;;5028058;28;20615;-92
2021/07/25 02:26:59;;;;;;;9.47;8.57;;;18.30;99.90;;;;;;5032441;28;20631;-92
2021/07/25 02:29:27;;;;;;;15.37;9.30;;;18.30;99.90;;;;;;5026027;28;20612;-91
2021/07/25 02:31:54;;;;;;;10.90;9.90;;;18.30;99.90;;;;;;5026155;28;20638;-91
2021/07/25 02:34:21;;;;;;;14.63;10.63;;;18.40;99.90;;;;;;5023001;28;21242;-93
2021/07/25 02:36:48;;;;;;;12.03;9.40;;;18.40;99.90;;;;;;5027941;28;20629;-91
2021/07/25 02:39:15;;;;;;;13.00;10.97;;;18.30;99.90;;;;;;5028410;28;20703;-91
2021/07/25 02:41:42;;;;;;;10.43;8.83;;;18.30;99.90;;;;;;5027802;28;21035;-90
2021/07/25 02:44:09;;;;;;;13.17;8.97;;;18.30;99.90;;;;;;5019146;28;21162;-93
2021/07/25 02:46:38;;;;;;;15.97;9.23;;;18.40;99.90;;;;;;5031091;28;20661;-90
2021/07/25 02:49:04;;;;;;;10.30;9.20;;;18.40;99.90;;;;;;5020322;28;20686;-94
2021/07/25 02:51:31;;;;;;;10.67;9.10;;;18.40;99.90;;;;;;5028265;28;20666;-91
2021/07/25 02:53:58;;;;;;;11.50;9.30;;;18.40;99.90;;;;;;5020956;28;20634;-94
2021/07/25 02:56:25;;;;;;;9.63;8.63;;;18.30;99.90;;;;;;5015990;28;20994;-90
2021/07/25 02:58:52;;;;;;;14.33;12.80;;;18.40;99.90;;;;;;5015810;28;20635;-93
2021/07/25 03:01:18;;;;;;;13.77;9.63;;;18.40;99.90;;;;;;5027320;28;20649;-91
2021/07/25 03:03:47;;;;;;;9.27;8.37;;;18.40;99.90;;;;;;5025056;28;20647;-91
2021/07/25 03:06:14;;;;;;;11.60;8.87;;;18.30;99.90;;;;;;5024584;28;20986;-91
2021/07/25 03:08:40;;;;;;;10.67;8.43;;;18.20;99.90;;;;;;5026116;28;21214;-91
2021/07/25 03:11:09;;;;;;;14.90;8.77;;;18.20;99.90;;;;;;5038640;28;20719;-93
2021/07/25 03:13:35;;;;;;;10.43;9.33;;;18.20;99.90;;;;;;5048191;28;20603;-93
2021/07/25 03:16:03;;;;;;;9.53;8.30;;;18.20;99.90;;;;;;5047946;28;20625;-93
2021/07/25 03:18:30;;;;;;;10.73;9.60;;;18.20;99.90;;;;;;5033559;28;20623;-93
2021/07/25 03:20:59;;;;;;;10.73;9.63;;;18.20;99.90;;;;;;5022266;28;20704;-91
2021/07/25 03:23:26;;;;;;;9.23;8.33;;;18.20;99.90;;;;;;5031092;28;20612;-93
2021/07/25 03:25:52;;;;;;;10.93;9.53;;;18.20;99.90;;;;;;5032982;28;20691;-93
2021/07/25 03:28:19;;;;;;;9.73;8.33;;;18.30;99.90;;;;;;5033561;28;20623;-91
2021/07/25 03:30:47;;;;;;;9.00;8.20;;;18.30;99.90;;;;;;5023506;28;21091;-91
2021/07/25 03:33:14;;;;;;;10.17;8.97;;;18.30;99.90;;;;;;5023433;28;20635;-91
2021/07/25 03:35:41;;;;;;;8.97;7.60;;;18.30;99.90;;;;;;5034115;28;20995;-91
2021/07/25 03:38:09;;;;;;;8.70;7.80;;;18.30;99.90;;;;;;5026544;28;20631;-92
2021/07/25 03:40:36;;;;;;;12.00;9.40;;;18.30;99.90;;;;;;5031637;28;20673;-91
2021/07/25 03:43:03;;;;;;;8.40;7.60;;;18.20;99.90;;;;;;5027981;28;20622;-91
2021/07/25 03:45:30;;;;;;;8.47;7.77;;;18.20;99.90;;;;;;5028544;28;20958;-91
2021/07/25 03:47:57;;;;;;;8.43;7.67;;;18.20;99.90;;;;;;5015486;28;21708;-91
2021/07/25 03:50:24;;;;;;;8.83;7.93;;;18.20;99.90;;;;;;5029267;28;20634;-91
2021/07/25 03:52:51;;;;;;;13.90;7.67;;;18.20;99.90;;;;;;5024603;28;20627;-91
2021/07/25 03:55:19;;;;;;;9.03;7.50;;;18.20;99.90;;;;;;5031903;28;20623;-93
2021/07/25 03:57:46;;;;;;;7.07;6.40;;;18.10;99.90;;;;;;5032708;28;21182;-93
2021/07/25 04:00:14;;;;;;;7.73;7.03;;;18.10;99.90;;;;;;5034598;28;21217;-93
2021/07/25 04:02:41;;;;;;;8.00;7.20;;;18.10;99.90;;;;;;5039084;28;20638;-92
2021/07/25 04:05:09;;;;;;;9.80;8.07;;;18.20;99.90;;;;;;5028821;28;20615;-92
2021/07/25 04:07:35;;;;;;;6.90;5.90;;;18.20;99.90;;;;;;5028161;28;21185;-92
2021/07/25 04:10:02;;;;;;;7.27;6.50;;;18.20;99.90;;;;;;5025363;28;20640;-92
2021/07/25 04:12:30;;;;;;;6.57;5.93;;;18.30;99.90;;;;;;5027429;28;20637;-92
2021/07/25 04:14:57;;;;;;;9.83;7.17;;;18.40;99.90;;;;;;5028272;28;20638;-92
2021/07/25 04:17:24;;;;;;;6.27;5.67;;;18.40;99.90;;;;;;5024439;28;20646;-92
2021/07/25 04:19:51;;;;;;;9.50;5.80;;;18.60;99.90;;;;;;5024410;28;21076;-92
2021/07/25 04:22:17;;;;;;;7.07;6.37;;;18.60;99.90;;;;;;5032411;28;20705;-92
2021/07/25 04:24:44;;;;;;;6.37;5.87;;;18.60;99.90;;;;;;5019185;28;21217;-92
2021/07/25 04:27:12;;;;;;;6.70;6.10;;;18.60;99.90;;;;;;5028834;28;20631;-92
2021/07/25 04:29:40;;;;;;;7.10;6.50;;;18.50;99.90;;;;;;5026685;28;20661;-93
2021/07/25 04:32:08;;;;;;;7.37;6.60;;;18.40;99.90;;;;;;5030762;28;20718;-92
2021/07/25 04:34:36;;;;;;;6.80;6.20;;;18.50;99.90;;;;;;5026467;28;20667;-93
2021/07/25 04:37:04;;;;;;;9.70;5.90;;;18.50;99.90;;;;;;5024703;28;20618;-92
2021/07/25 04:39:32;;;;;;;13.93;10.90;;;18.50;99.90;;;;;;5025780;28;20651;-92
2021/07/25 04:41:59;;;;;;;7.13;6.43;;;18.50;99.90;;;;;;5023030;28;20650;-92
2021/07/25 04:44:32;;;;;;;9.90;7.27;;;18.60;99.90;;;;;;5021438;28;20965;-92
2021/07/25 04:47:04;;;;;;;6.73;5.73;;;18.70;99.90;;;;;;5022232;28;21088;-92
2021/07/25 04:49:36;;;;;;;6.43;5.93;;;18.80;99.90;;;;;;5025583;28;20729;-92
2021/07/25 04:52:03;;;;;;;6.97;5.30;;;18.70;99.90;;;;;;5026164;28;20627;-92
2021/07/25 04:54:35;;;;;;;7.70;5.80;;;18.80;99.90;;;;;;5028466;28;20634;-92
2021/07/25 04:57:05;;;;;;;9.63;6.70;;;18.80;99.90;;;;;;5016219;28;20619;-91
2021/07/25 04:59:41;;;;;;;5.90;5.40;;;18.80;99.90;;;;;;5031288;28;21231;-92
2021/07/25 05:02:11;;;;;;;8.30;6.37;;;18.80;99.90;;;;;;5036546;28;20617;-92
2021/07/25 05:04:38;;;;;;;7.43;6.67;;;18.80;99.90;;;;;;5022424;28;20701;-91
2021/07/25 05:07:05;;;;;;;9.50;7.83;;;18.80;99.90;;;;;;5028565;28;20629;-92
2021/07/25 05:09:33;;;;;;;8.63;7.73;;;18.70;99.90;;;;;;5020000;28;21012;-92
2021/07/25 05:12:10;;;;;;;7.80;7.10;;;18.80;99.90;;;;;;5028925;28;20613;-92
2021/07/25 05:14:38;;;;;;;8.20;7.40;;;18.80;99.90;;;;;;5023239;28;20624;-92
2021/07/25 05:17:12;;;;;;;9.90;7.30;;;18.80;99.90;;;;;;5023996;28;21030;-92
2021/07/25 05:19:52;;;;;;;9.70;8.80;;;18.80;99.90;;;;;;5023178;28;20680;-92
2021/07/25 05:22:32;;;;;;;9.00;8.20;;;18.80;99.90;;;;;;5022381;28;20630;-92
2021/07/25 05:25:02;;;;;;;8.43;6.80;;;18.80;99.90;;;;;;5015680;28;21218;-91
2021/07/25 05:27:38;;;;;;;10.10;9.10;;;18.90;99.90;;;;;;5031430;28;20633;-92
2021/07/25 05:30:06;;;;;;;10.60;8.00;;;18.90;99.90;;;;;;5020081;28;20665;-92
2021/07/25 05:32:35;;;;;;;11.93;8.40;;;18.90;99.90;;;;;;5023683;28;20634;-92
2021/07/25 05:35:02;;;;;;;11.60;8.20;;;18.90;99.90;;;;;;5022430;28;21195;-92
2021/07/25 05:37:28;;;;;;;11.93;10.70;;;18.90;99.90;;;;;;5022520;28;20638;-92
2021/07/25 05:39:55;;;;;;;11.97;10.00;;;18.80;99.90;;;;;;5031891;28;20673;-92
2021/07/25 05:42:22;;;;;;;10.53;9.57;;;18.70;99.90;;;;;;5025827;28;20636;-92
2021/07/25 05:44:49;;;;;;;11.70;10.07;;;18.70;99.90;;;;;;5023229;28;20623;-92
2021/07/25 05:47:16;;;;;;;14.07;10.77;;;18.70;99.90;;;;;;5035461;28;20634;-92
2021/07/25 05:49:44;;;;;;;10.20;9.23;;;18.70;99.90;;;;;;5030563;28;20648;-91
2021/07/25 05:52:10;;;;;;;9.93;8.90;;;18.70;99.90;;;;;;5029771;28;20615;-92
2021/07/25 05:54:37;;;;;;;14.57;9.80;;;18.70;99.90;;;;;;5022069;28;20629;-91
2021/07/25 05:57:04;;;;;;;11.03;9.07;;;18.80;99.90;;;;;;5020943;28;20981;-91
2021/07/25 05:59:31;;;;;;;9.07;8.10;;;18.90;99.90;;;;;;5028477;28;20651;-91
2021/07/25 06:02:01;;;;;;;10.70;8.23;;;19.00;99.90;;;;;;5027410;28;21237;-92
2021/07/25 06:04:28;;;;;;;8.70;7.90;;;19.00;99.90;;;;;;5028584;28;20698;-92
2021/07/25 06:06:56;;;;;;;10.10;9.10;;;19.20;99.90;;;;;;5028131;28;20642;-92
2021/07/25 06:09:24;;;;;;;10.50;6.80;;;19.20;99.90;;;;;;5025415;28;21150;-90
2021/07/25 06:11:51;;;;;;;7.90;7.10;;;19.30;99.90;;;;;;5027575;28;20630;-91
2021/07/25 06:14:17;;;;;;;9.20;8.10;;;19.30;99.90;;;;;;5029453;28;21299;-92
2021/07/25 06:16:44;;;;;;;8.90;8.07;;;19.40;99.90;;;;;;5022064;28;20643;-92
2021/07/25 06:19:11;;;;;;;20.63;9.03;;;19.50;99.90;;;;;;5022050;28;21217;-92
2021/07/25 06:21:38;;;;;;;8.83;8.03;;;19.50;99.90;;;;;;5021820;28;20670;-91
2021/07/25 06:24:07;;;;;;;8.43;7.30;;;19.60;99.90;;;;;;5022643;28;20646;-91
2021/07/25 06:26:35;;;;;;;8.93;7.80;;;19.70;99.90;;;;;;5030320;28;20626;-92
2021/07/25 06:29:02;;;;;;;10.37;8.40;;;19.50;99.90;;;;;;5026442;28;20619;-91
2021/07/25 06:31:29;;;;;;;8.90;8.10;;;19.50;99.90;;;;;;5021988;28;20639;-92
2021/07/25 06:33:56;;;;;;;12.13;8.57;;;19.60;99.90;;;;;;5024117;28;20655;-92
2021/07/25 06:36:24;;;;;;;8.73;7.70;;;19.70;99.90;;;;;;5022025;28;21115;-92
2021/07/25 06:38:51;;;;;;;8.07;7.30;;;19.80;99.90;;;;;;5014838;28;20662;-92
2021/07/25 06:41:19;;;;;;;9.50;8.60;;;19.90;99.90;;;;;;5021557;28;21251;-92
2021/07/25 06:43:46;;;;;;;9.40;8.00;;;19.90;99.90;;;;;;5021742;28;20618;-91
2021/07/25 06:46:13;;;;;;;8.87;7.87;;;20.00;99.90;;;;;;5029244;28;20970;-92
2021/07/25 06:48:40;;;;;;;9.37;8.43;;;20.00;99.90;;;;;;5022695;28;20673;-91
2021/07/25 06:51:07;;;;;;;13.60;7.67;;;20.20;99.90;;;;;;5023548;28;20650;-91
2021/07/25 06:53:34;;;;;;;9.70;7.23;;;20.30;99.90;;;;;;5022683;28;20625;-90
2021/07/25 06:56:05;;;;;;;8.70;7.37;;;20.30;99.90;;;;;;5023280;28;21252;-91
2021/07/25 06:58:33;;;;;;;7.73;6.93;;;20.40;99.90;;;;;;5023358;28;20701;-92
2021/07/25 07:01:00;;;;;;;10.40;7.50;;;20.40;99.90;;;;;;5023601;28;20671;-91
2021/07/25 07:03:28;;;;;;;8.40;7.50;;;20.70;99.90;;;;;;5017828;28;20635;-91
2021/07/25 07:05:54;;;;;;;7.80;6.53;;;20.80;99.90;;;;;;5026281;28;20623;-91
2021/07/25 07:08:23;;;;;;;10.50;7.63;;;20.80;99.90;;;;;;5020124;28;20628;-91
2021/07/25 07:10:50;;;;;;;7.27;6.67;;;20.90;99.90;;;;;;5017939;28;20646;-91
2021/07/25 07:13:19;;;;;;;11.17;7.47;;;20.90;99.90;;;;;;5026924;28;21180;-91
2021/07/25 07:15:48;;;;;;;7.87;6.87;;;21.10;99.90;;;;;;5026000;28;20579;-91
2021/07/25 07:18:16;;;;;;;8.37;7.67;;;21.20;99.90;;;;;;5023474;28;20638;-91
2021/07/25 07:20:42;;;;;;;8.60;6.50;;;21.30;99.90;;;;;;5023529;28;20677;-91
2021/07/25 07:23:24;;;;;;;7.13;6.47;;;21.60;99.90;;;;;;5027280;28;20635;-92
2021/07/25 07:25:52;;;;;;;7.90;6.00;;;21.60;99.90;;;;;;5032979;28;20627;-91
2021/07/25 07:28:20;;;;;;;7.57;6.80;;;21.70;99.90;;;;;;5022965;28;20622;-91
2021/07/25 07:30:49;;;;;;;8.00;7.20;;;21.70;99.90;;;;;;5017338;28;20655;-91
2021/07/25 07:33:18;;;;;;;8.33;7.50;;;21.90;99.90;;;;;;5022530;28;20623;-90
2021/07/25 07:35:45;;;;;;;11.87;6.50;;;21.80;99.90;;;;;;5023406;28;20627;-91
2021/07/25 07:38:13;;;;;;;7.30;6.70;;;21.80;99.90;;;;;;5022245;28;20765;-91
2021/07/25 07:40:41;;;;;;;9.43;7.23;;;21.70;99.90;;;;;;5020274;28;20700;-90
2021/07/25 07:43:10;;;;;;;9.13;6.60;;;21.80;99.90;;;;;;5021894;28;20639;-91
2021/07/25 07:45:39;;;;;;;8.47;7.67;;;21.80;99.90;;;;;;5025438;28;20584;-90
2021/07/25 07:48:08;;;;;;;11.83;6.30;;;21.80;99.90;;;;;;5016398;28;20619;-93
2021/07/25 07:50:35;;;;;;;10.90;6.57;;;21.70;99.90;;;;;;5018978;28;20669;-90
2021/07/25 07:53:02;;;;;;;7.40;6.10;;;21.80;99.90;;;;;;5015721;28;21220;-91
2021/07/25 07:55:29;;;;;;;6.97;6.27;;;21.90;99.90;;;;;;5018271;28;21158;-91
2021/07/25 07:57:56;;;;;;;7.80;7.03;;;21.90;99.90;;;;;;5029211;28;20626;-92
2021/07/25 08:00:22;;;;;;;8.60;6.20;;;21.90;99.90;;;;;;5022367;28;20639;-91
2021/07/25 08:02:49;;;;;;;9.47;6.50;;;21.90;99.90;;;;;;5023073;28;20668;-92
2021/07/25 08:05:19;;;;;;;6.40;5.90;;;21.90;99.90;;;;;;5022885;28;20639;-91
2021/07/25 08:07:45;;;;;;;6.90;6.27;;;22.00;99.90;;;;;;5021853;28;20624;-91
2021/07/25 08:10:13;;;;;;;8.00;6.83;;;22.20;99.90;;;;;;5020340;28;21210;-91
2021/07/25 08:12:42;;;;;;;10.50;5.57;;;22.20;99.90;;;;;;5026019;28;20626;-91
2021/07/25 08:15:12;;;;;;;8.97;6.20;;;22.30;99.90;;;;;;5027211;28;20615;-91
2021/07/25 08:17:38;;;;;;;6.37;5.87;;;22.40;99.90;;;;;;5023164;28;20630;-92
2021/07/25 08:20:07;;;;;;;8.57;7.27;;;22.50;99.90;;;;;;5022490;28;20651;-91
2021/07/25 08:22:35;;;;;;;7.53;6.20;;;22.60;99.90;;;;;;5023175;28;20668;-91
2021/07/25 08:25:03;;;;;;;5.57;5.07;;;22.70;99.90;;;;;;5018693;28;20630;-91
2021/07/25 08:27:29;;;;;;;5.90;5.40;;;22.80;99.90;;;;;;5032956;28;21234;-91
2021/07/25 08:29:56;;;;;;;5.53;4.77;;;22.80;99.90;;;;;;5021377;28;20655;-91
2021/07/25 08:32:23;;;;;;;5.57;5.10;;;22.80;99.90;;;;;;5026912;28;20616;-91
2021/07/25 08:34:50;;;;;;;5.97;5.43;;;22.70;99.90;;;;;;5035240;28;20630;-91
2021/07/25 08:37:17;;;;;;;5.43;4.97;;;22.70;99.90;;;;;;5028309;28;20647;-91
2021/07/25 08:39:45;;;;;;;6.40;4.73;;;22.60;99.90;;;;;;5029095;28;21146;-91
2021/07/25 08:42:16;;;;;;;5.13;4.70;;;22.50;99.90;;;;;;5033440;28;20675;-91
2021/07/25 08:44:48;;;;;;;4.73;4.43;;;22.40;99.90;;;;;;5021094;28;20640;-91
2021/07/25 08:47:19;;;;;;;5.37;4.87;;;22.40;99.90;;;;;;5025318;28;20997;-92
2021/07/25 08:49:57;;;;;;;4.57;4.23;;;22.50;99.90;;;;;;5032120;28;20646;-92
2021/07/25 08:52:26;;;;;;;5.37;4.97;;;22.60;99.90;;;;;;5024367;28;20588;-91
2021/07/25 08:54:56;;;;;;;5.07;4.50;;;22.30;99.90;;;;;;5021183;28;20623;-92
2021/07/25 08:57:24;;;;;;;7.10;4.97;;;22.40;99.90;;;;;;5029186;28;20647;-91
2021/07/25 08:59:54;;;;;;;6.40;5.80;;;22.40;99.90;;;;;;5025118;28;20658;-91
2021/07/25 09:02:23;;;;;;;5.67;5.10;;;22.40;99.90;;;;;;5022794;28;20698;-91
2021/07/25 09:04:51;;;;;;;5.00;4.60;;;22.40;99.90;;;;;;5021585;28;20730;-91
2021/07/25 09:07:20;;;;;;;4.73;4.43;;;22.50;99.90;;;;;;5025249;28;20635;-91
2021/07/25 09:09:50;;;;;;;7.10;5.10;;;22.40;99.90;;;;;;5030863;28;20649;-91
2021/07/25 09:12:20;;;;;;;5.97;4.83;;;22.30;99.90;;;;;;5023766;28;21144;-90
2021/07/25 09:14:50;;;;;;;5.53;5.03;;;22.30;99.90;;;;;;5026888;28;21482;-92
2021/07/25 09:17:18;;;;;;;6.20;5.60;;;22.40;99.90;;;;;;5021373;28;20623;-92
2021/07/25 09:20:14;;;;;;;6.23;5.63;;;22.50;99.90;;;;;;5022011;28;21202;-92
2021/07/25 09:23:09;;;;;;;6.97;6.37;;;22.50;99.90;;;;;;5030079;28;21029;-92
2021/07/25 09:25:48;;;;;;;7.00;6.40;;;22.50;99.90;;;;;;5025620;28;20634;-92
2021/07/25 09:28:26;;;;;;;5.60;4.70;;;22.50;99.90;;;;;;5026248;28;21071;-91
2021/07/25 09:30:53;;;;;;;9.40;5.60;;;22.50;99.90;;;;;;5029427;28;21213;-92
2021/07/25 09:33:29;;;;;;;6.10;5.70;;;22.40;99.90;;;;;;5025886;28;20675;-92
2021/07/25 09:36:12;;;;;;;7.03;6.43;;;22.30;99.90;;;;;;5023694;28;20619;-91
2021/07/25 09:38:40;;;;;;;7.53;6.83;;;22.30;99.90;;;;;;5013630;28;21099;-91
2021/07/25 09:41:18;;;;;;;7.97;7.27;;;22.30;99.90;;;;;;5018850;28;20666;-92
2021/07/25 09:43:58;;;;;;;10.90;8.10;;;22.20;99.90;;;;;;5017980;28;20627;-91
2021/07/25 09:46:25;;;;;;;7.53;6.83;;;22.30;99.90;;;;;;5026126;28;20669;-91
2021/07/25 09:48:57;;;;;;;8.47;6.90;;;22.30;99.90;;;;;;5018454;28;21330;-91
2021/07/25 09:51:25;;;;;;;7.20;6.57;;;22.30;99.90;;;;;;5025753;28;20652;-92
2021/07/25 09:53:53;;;;;;;8.00;6.77;;;22.50;99.90;;;;;;5031840;28;20607;-92
2021/07/25 09:56:23;;;;;;;9.63;7.37;;;22.50;99.90;;;;;;5020133;28;20630;-91
2021/07/25 09:58:52;;;;;;;7.60;6.90;;;22.60;99.90;;;;;;5020527;28;20655;-91
2021/07/25 10:01:35;;;;;;;6.80;6.10;;;22.40;99.90;;;;;;5030602;28;20650;-91
2021/07/25 10:04:17;;;;;;;7.17;6.57;;;22.50;99.90;;;;;;5018829;28;20778;-92
2021/07/25 10:06:48;;;;;;;7.80;6.90;;;22.40;99.90;;;;;;5025082;28;20753;-92
2021/07/25 10:09:16;;;;;;;7.50;6.80;;;22.60;99.90;;;;;;5023155;28;20614;-92
2021/07/25 10:11:48;;;;;;;7.90;7.30;;;22.70;99.90;;;;;;5022892;28;20629;-92
2021/07/25 10:14:19;;;;;;;7.17;6.47;;;22.70;99.90;;;;;;5029754;28;21366;-92
2021/07/25 10:16:51;;;;;;;8.37;7.57;;;22.70;99.90;;;;;;5021214;28;20628;-92
2021/07/25 10:19:22;;;;;;;7.07;6.37;;;22.70;99.90;;;;;;5020361;28;20634;-92
2021/07/25 10:21:51;;;;;;;8.90;6.53;;;22.60;99.90;;;;;;5023370;28;20758;-93
2021/07/25 10:24:19;;;;;;;8.00;7.20;;;22.70;99.90;;;;;;5023631;28;20639;-91
2021/07/25 10:26:46;;;;;;;7.50;6.90;;;22.70;99.90;;;;;;5024929;28;20618;-92
2021/07/25 10:29:14;;;;;;;6.93;6.23;;;22.60;99.90;;;;;;5023807;28;20607;-92
2021/07/25 10:31:44;;;;;;;7.07;6.23;;;22.60;99.90;;;;;;5023736;28;21179;-92
2021/07/25 10:34:12;;;;;;;7.00;6.40;;;22.70;99.90;;;;;;5028075;28;20625;-92
2021/07/25 10:36:40;;;;;;;9.33;6.00;;;22.70;99.90;;;;;;5023699;28;20642;-92
2021/07/25 10:39:07;;;;;;;6.37;5.20;;;22.80;99.90;;;;;;5026886;28;20661;-92
2021/07/25 10:41:34;;;;;;;5.37;4.97;;;22.70;99.90;;;;;;5017202;28;20669;-92
2021/07/25 10:44:03;;;;;;;6.30;5.77;;;22.70;99.90;;;;;;5028237;28;20626;-92
2021/07/25 10:46:32;;;;;;;6.30;5.50;;;22.60;99.90;;;;;;5024012;28;20704;-92
2021/07/25 10:49:12;;;;;;;6.47;5.23;;;22.30;99.90;;;;;;5021702;28;21217;-91
2021/07/25 10:52:01;;;;;;;5.53;5.07;;;22.20;99.90;;;;;;5017657;28;20620;-92
2021/07/25 10:54:35;;;;;;;6.63;5.03;;;22.30;99.90;;;;;;5022053;28;20654;-91
2021/07/25 10:57:04;;;;;;;5.53;4.70;;;22.20;99.90;;;;;;5028435;28;21174;-91
2021/07/25 10:59:38;;;;;;;5.33;4.33;;;22.30;99.90;;;;;;5023846;28;20658;-92
2021/07/25 11:02:05;;;;;;;7.53;4.77;;;22.50;99.90;;;;;;5020715;28;20714;-92
2021/07/25 11:05:06;;;;;;;8.80;5.00;;;22.60;99.90;;;;;;5021038;28;20633;-92
2021/07/25 11:07:37;;;;;;;6.47;5.87;;;22.70;99.90;;;;;;5031652;28;20639;-92
2021/07/25 11:10:10;;;;;;;5.20;4.40;;;22.70;99.90;;;;;;5022528;28;20639;-92
2021/07/25 11:13:18;;;;;;;3.97;3.67;;;22.90;99.90;;;;;;5024561;28;21216;-92
2021/07/25 11:15:49;;;;;;;6.47;4.77;;;22.80;99.90;;;;;;5019728;28;20708;-92
2021/07/25 11:18:34;;;;;;;4.80;4.50;;;22.80;99.90;;;;;;5017068;28;20615;-91
2021/07/25 11:21:07;;;;;;;4.40;4.00;;;22.50;99.90;;;;;;5031655;28;20662;-92
2021/07/25 11:23:38;;;;;;;4.37;3.97;;;22.50;99.90;;;;;;5023811;28;20795;-92
2021/07/25 11:26:31;;;;;;;5.50;4.80;;;22.60;99.90;;;;;;5027891;28;20613;-92
2021/07/25 11:28:58;;;;;;;5.53;5.10;;;22.60;99.90;;;;;;5002044;28;20631;-91
2021/07/25 11:31:39;;;;;;;5.73;5.23;;;22.90;99.90;;;;;;5019117;28;21217;-91
2021/07/25 11:34:07;;;;;;;5.60;5.20;;;23.00;99.90;;;;;;5024641;28;20634;-92
2021/07/25 11:36:37;;;;;;;4.70;4.30;;;23.10;99.90;;;;;;5021690;28;20633;-91
2021/07/25 11:39:06;;;;;;;4.70;4.30;;;23.20;99.90;;;;;;5027422;28;20976;-91
2021/07/25 11:41:34;;;;;;;5.67;5.10;;;22.90;99.90;;;;;;5021452;28;21292;-91
2021/07/25 11:44:02;;;;;;;6.53;5.73;;;23.00;99.90;;;;;;5021140;28;20794;-92
2021/07/25 11:46:37;;;;;;;5.93;5.30;;;23.10;99.90;;;;;;5017662;28;20611;-91
2021/07/25 11:49:10;;;;;;;6.70;5.30;;;23.10;99.90;;;;;;5015738;28;20630;-92
2021/07/25 11:51:41;;;;;;;6.30;5.80;;;23.00;99.90;;;;;;5020410;28;20622;-92
2021/07/25 11:54:08;;;;;;;6.10;5.60;;;22.80;99.90;;;;;;5021885;28;20990;-91
2021/07/25 11:56:36;;;;;;;6.50;5.90;;;22.90;99.90;;;;;;5025397;28;20606;-92
2021/07/25 11:59:06;;;;;;;5.10;4.70;;;22.80;99.90;;;;;;5027334;28;20632;-92
2021/07/25 12:01:34;;;;;;;6.17;5.60;;;23.00;99.90;;;;;;5024900;28;21404;-91
2021/07/25 12:04:16;;;;;;;6.20;5.60;;;23.10;99.90;;;;;;5023501;28;21072;-92
2021/07/25 12:06:45;;;;;;;5.47;5.00;;;23.20;99.90;;;;;;5030962;28;20630;-92
2021/07/25 12:09:12;;;;;;;7.93;5.70;;;23.30;99.90;;;;;;5029981;28;20618;-92
2021/07/25 12:11:40;;;;;;;5.47;5.07;;;23.30;99.90;;;;;;5031301;28;20664;-92
2021/07/25 12:14:07;;;;;;;5.70;5.30;;;23.00;99.90;;;;;;5027422;28;20615;-92
2021/07/25 12:16:47;;;;;;;5.73;5.10;;;23.00;99.90;;;;;;5027970;28;21430;-92
2021/07/25 12:19:15;;;;;;;6.67;6.07;;;22.60;99.90;;;;;;5029849;28;20633;-91
2021/07/25 12:21:44;;;;;;;6.37;5.87;;;22.40;99.90;;;;;;5030333;28;20631;-92
2021/07/25 12:24:28;;;;;;;5.93;4.80;;;22.40;99.90;;;;;;5023627;28;20663;-92
2021/07/25 12:26:56;;;;;;;6.17;5.57;;;22.30;99.90;;;;;;5028106;28;21193;-92
2021/07/25 12:29:42;;;;;;;5.67;5.23;;;22.30;99.90;;;;;;5026266;28;20632;-91
2021/07/25 12:32:26;;;;;;;6.27;4.63;;;22.10;99.90;;;;;;5024158;28;21051;-92
2021/07/25 12:34:54;;;;;;;5.43;4.93;;;22.10;99.90;;;;;;5027929;28;20739;-92
2021/07/25 12:37:27;;;;;;;7.03;5.47;;;22.00;99.90;;;;;;5032382;28;21062;-91
2021/07/25 12:40:11;;;;;;;5.00;4.60;;;22.00;99.90;;;;;;5026950;28;20647;-91
2021/07/25 12:42:49;;;;;;;5.93;5.33;;;22.00;99.90;;;;;;5019725;28;20666;-92
2021/07/25 12:45:39;;;;;;;5.27;4.83;;;21.90;99.90;;;;;;5025646;28;21010;-91
2021/07/25 12:48:26;;;;;;;5.97;5.47;;;22.00;99.90;;;;;;5014570;28;20943;-92
2021/07/25 12:50:57;;;;;;;6.10;5.60;;;22.00;99.90;;;;;;5014774;28;20713;-92
2021/07/25 12:53:45;;;;;;;5.63;5.17;;;22.00;99.90;;;;;;5016645;28;20772;-92
2021/07/25 12:56:15;;;;;;;7.40;6.80;;;22.00;99.90;;;;;;5022282;28;20684;-91